Kingman, Maine
Current Conditions -  °F | °C
As of 10:53 AM on Friday 28 Nov 2014 (Local Time) from KMLT Reporting Station
Overcast Overcast  
Wind Chill: 16°   Ceiling: 10000
Heat Index: 23°   Visibility: 10mi
Dew Point:   Wind: 6mph
Humidity: 55%   Direction: 330°NNW
Pressure: 30.02"   Gusts: NA
Location:  45.55°N, 68.2°W
Report Text: KMLT 281553Z AUTO 33005KT 10SM BKN100 OVC120 M05/M13 A3002 RMK AO2 SLP177 T10501128
Loading
Personal Weather Stations






























Interactive Weather Map New forecast layout! Learn more

10-Day Weather Forecast

Advertisements
Track Severe Weather on mobile